Time;durP1;ratioP1;P1;durP2;ratioP2;P2;SDS_P1;SDS_P2;PMS_P1;PMS_P2;Temp;Humidity;BMP_temperature;BMP_pressure;BME280_temperature;BME280_humidity;BME280_pressure;Samples;Min_cycle;Max_cycle;Signal;HPM_P1;HPM_P2
2024/01/04 00:00:01;;;;;;;1.25;0.30;;;7.20;99.90;;;6.45;100.00;95739.38;4975579;28;20364;-37
2024/01/04 00:02:30;;;;;;;2.70;0.60;;;7.20;99.90;;;6.46;100.00;95736.69;4972228;28;20034;-38
2024/01/04 00:04:58;;;;;;;0.75;0.30;;;7.10;99.90;;;6.36;100.00;95729.34;4974584;28;20027;-38
2024/01/04 00:07:25;;;;;;;1.52;0.40;;;7.00;99.90;;;6.33;100.00;95725.09;4973237;28;20963;-37
2024/01/04 00:09:51;;;;;;;3.70;0.70;;;7.00;99.90;;;6.33;100.00;95730.31;4975493;28;20149;-37
2024/01/04 00:12:18;;;;;;;3.90;0.50;;;7.00;99.90;;;6.26;100.00;95732.41;4973207;28;20379;-36
2024/01/04 00:14:44;;;;;;;1.58;0.40;;;6.90;99.90;;;6.27;100.00;95730.63;4973848;28;20035;-37
2024/01/04 00:17:09;;;;;;;1.02;0.40;;;6.90;99.90;;;6.17;100.00;95732.81;4971438;28;20045;-37
2024/01/04 00:19:35;;;;;;;1.55;0.35;;;6.90;99.90;;;6.13;100.00;95752.19;4966578;28;20043;-37
2024/01/04 00:22:01;;;;;;;2.88;0.40;;;6.80;99.90;;;6.14;100.00;95748.66;4973485;28;20042;-37
2024/01/04 00:24:26;;;;;;;1.95;0.45;;;6.80;99.90;;;6.14;100.00;95751.28;4970127;28;20065;-37
2024/01/04 00:26:52;;;;;;;1.98;0.63;;;6.80;99.90;;;6.11;100.00;95749.63;4974563;28;20027;-37
2024/01/04 00:29:18;;;;;;;3.78;0.60;;;6.80;99.90;;;6.12;100.00;95760.97;4973534;28;20096;-37
2024/01/04 00:31:43;;;;;;;2.85;0.60;;;6.70;99.90;;;6.06;100.00;95758.63;4973079;28;20959;-37
2024/01/04 00:34:09;;;;;;;5.20;0.75;;;6.70;99.90;;;5.95;100.00;95742.53;4973408;28;20034;-37
2024/01/04 00:36:35;;;;;;;3.30;0.50;;;6.70;99.90;;;5.81;100.00;95727.44;4972757;28;20042;-37
2024/01/04 00:39:00;;;;;;;2.88;0.52;;;6.60;99.90;;;5.96;100.00;95765.19;4972537;28;20574;-37
2024/01/04 00:41:26;;;;;;;3.25;0.73;;;6.60;99.90;;;5.92;100.00;95760.06;4971628;28;20042;-37
2024/01/04 00:43:52;;;;;;;1.70;0.63;;;6.60;99.90;;;5.94;100.00;95752.16;4973753;28;20041;-37
2024/01/04 00:46:17;;;;;;;2.45;0.60;;;6.60;99.90;;;5.98;100.00;95758.13;4969485;28;20069;-37
2024/01/04 00:48:43;;;;;;;5.25;0.75;;;6.60;99.90;;;5.97;100.00;95764.28;4972787;28;20053;-37
2024/01/04 00:51:09;;;;;;;3.53;0.70;;;6.60;99.90;;;5.95;100.00;95769.53;4973282;28;20034;-37
2024/01/04 00:53:35;;;;;;;2.70;0.57;;;6.60;99.90;;;5.94;100.00;95773.09;4968480;28;20041;-37
2024/01/04 00:56:00;;;;;;;1.13;0.45;;;6.60;99.90;;;5.97;100.00;95780.81;4971558;28;20041;-37
2024/01/04 00:58:26;;;;;;;3.10;0.75;;;6.60;99.90;;;5.97;100.00;95765.13;4969918;28;20038;-37
2024/01/04 01:00:52;;;;;;;2.95;0.77;;;6.60;99.90;;;5.95;100.00;95774.78;4971806;28;20067;-37
2024/01/04 01:03:17;;;;;;;3.35;0.60;;;6.60;99.90;;;5.93;100.00;95781.84;4971437;28;20034;-37
2024/01/04 01:05:43;;;;;;;4.32;0.75;;;6.60;99.90;;;5.88;100.00;95779.41;4973633;28;20727;-38
2024/01/04 01:08:10;;;;;;;0.82;0.35;;;6.50;99.90;;;5.89;100.00;95793.38;4968015;28;20495;-38
2024/01/04 01:10:35;;;;;;;2.60;0.50;;;6.60;99.90;;;5.89;100.00;95780.28;4967406;28;20521;-37
2024/01/04 01:13:01;;;;;;;2.38;0.60;;;6.50;99.90;;;5.84;100.00;95790.09;4975030;28;20050;-38
2024/01/04 01:15:27;;;;;;;2.60;0.80;;;6.50;99.90;;;5.91;100.00;95800.22;4973905;28;20042;-37
2024/01/04 01:17:53;;;;;;;5.45;0.70;;;6.50;99.90;;;5.80;100.00;95805.09;4973896;28;20030;-37
2024/01/04 01:20:19;;;;;;;1.08;0.43;;;6.50;99.90;;;5.81;100.00;95808.53;4972297;28;20034;-38
2024/01/04 01:22:45;;;;;;;2.38;0.60;;;6.40;99.90;;;5.71;100.00;95806.31;4973017;28;20720;-38
2024/01/04 01:25:10;;;;;;;1.63;0.40;;;6.40;99.90;;;5.70;100.00;95809.00;4975685;28;20033;-37
2024/01/04 01:27:37;;;;;;;1.00;0.40;;;6.40;99.90;;;5.72;100.00;95808.03;4973695;28;20027;-37
2024/01/04 01:30:03;;;;;;;1.98;0.60;;;6.40;99.90;;;5.65;100.00;95797.88;4965293;28;20530;-37
2024/01/04 01:32:28;;;;;;;7.18;1.73;;;6.30;99.90;;;5.61;100.00;95793.72;4969295;28;20041;-37
2024/01/04 01:34:54;;;;;;;2.05;0.73;;;6.30;99.90;;;5.65;100.00;95806.59;4973659;28;20038;-37
2024/01/04 01:37:21;;;;;;;3.50;0.50;;;6.30;99.90;;;5.58;100.00;95801.69;4966031;28;20120;-37
2024/01/04 01:39:47;;;;;;;4.13;0.47;;;6.30;99.90;;;5.47;100.00;95792.56;4970538;28;20078;-37
2024/01/04 01:42:12;;;;;;;3.83;0.63;;;6.20;99.90;;;5.46;100.00;95806.53;4972430;28;20049;-37
2024/01/04 01:44:38;;;;;;;1.45;0.55;;;6.20;99.90;;;5.28;100.00;95782.00;4973310;28;20069;-37
2024/01/04 01:47:04;;;;;;;2.75;0.30;;;6.10;99.90;;;5.43;100.00;95821.50;4973404;28;20026;-37
2024/01/04 01:49:31;;;;;;;1.08;0.30;;;6.10;99.90;;;5.46;100.00;95816.16;4972074;28;20041;-37
2024/01/04 01:51:57;;;;;;;2.33;0.65;;;6.10;99.90;;;5.48;100.00;95833.44;4990193;28;20038;-37
2024/01/04 01:54:23;;;;;;;3.75;0.50;;;6.20;99.90;;;5.47;100.00;95837.00;4971059;28;20544;-37
2024/01/04 01:56:49;;;;;;;2.95;0.38;;;6.20;99.90;;;5.57;100.00;95866.22;4975004;28;20066;-37
2024/01/04 01:59:15;;;;;;;1.65;0.30;;;6.20;99.90;;;5.59;100.00;95859.16;4970002;28;20404;-37
2024/01/04 02:01:41;;;;;;;0.55;0.20;;;6.20;99.90;;;5.61;100.00;95857.31;4970103;28;20069;-37
2024/01/04 02:04:06;;;;;;;0.25;0.20;;;6.20;99.90;;;5.47;100.00;95836.13;4972965;28;20054;-37
2024/01/04 02:06:32;;;;;;;0.85;0.20;;;6.20;99.90;;;5.31;100.00;95807.16;4974306;28;20039;-37
2024/01/04 02:08:58;;;;;;;0.95;0.30;;;6.10;99.90;;;5.41;100.00;95837.25;4979987;28;20502;-37
2024/01/04 02:11:23;;;;;;;1.35;0.43;;;6.00;99.90;;;5.31;100.00;95825.44;4960395;28;20505;-37
2024/01/04 02:13:49;;;;;;;2.28;0.30;;;5.90;99.90;;;5.26;100.00;95843.13;4977736;28;20042;-37
2024/01/04 02:16:15;;;;;;;1.35;0.22;;;5.90;99.90;;;5.21;100.00;95847.66;4976593;28;20096;-37
2024/01/04 02:18:41;;;;;;;0.40;0.15;;;5.80;99.90;;;5.23;100.00;95851.06;4979315;28;20069;-37
2024/01/04 02:21:09;;;;;;;0.63;0.10;;;5.80;99.90;;;5.22;100.00;95859.81;4976687;28;20508;-37
2024/01/04 02:23:34;;;;;;;1.02;0.30;;;5.80;99.90;;;5.15;100.00;95865.28;4972493;28;20375;-36
2024/01/04 02:26:01;;;;;;;1.05;0.15;;;5.80;99.90;;;5.18;100.00;95884.38;4978001;28;20037;-37
2024/01/04 02:28:27;;;;;;;1.40;0.20;;;5.80;99.90;;;5.19;100.00;95900.00;4977772;28;20049;-37
2024/01/04 02:30:53;;;;;;;0.93;0.20;;;5.80;99.90;;;5.21;100.00;95907.78;4975380;28;20069;-37
2024/01/04 02:33:18;;;;;;;0.28;0.28;;;5.90;99.90;;;5.23;100.00;95913.78;4978782;28;20109;-37
2024/01/04 02:35:44;;;;;;;3.47;0.20;;;5.90;99.90;;;5.24;100.00;95897.19;4975642;28;20061;-37
2024/01/04 02:38:10;;;;;;;0.70;0.10;;;5.90;99.90;;;5.25;100.00;95906.75;4978127;28;20042;-37
2024/01/04 02:40:36;;;;;;;0.75;0.10;;;5.90;99.90;;;5.22;100.00;95902.47;4971537;28;20034;-37
2024/01/04 02:43:02;;;;;;;0.20;0.15;;;5.90;99.90;;;5.22;100.00;95893.78;4973915;28;20042;-37
2024/01/04 02:45:28;;;;;;;0.35;0.13;;;5.90;99.90;;;5.11;100.00;95891.59;4974969;28;20157;-37
2024/01/04 02:47:53;;;;;;;0.10;0.10;;;5.90;99.90;;;5.21;100.00;95899.94;4976721;28;20257;-37
2024/01/04 02:50:19;;;;;;;0.10;0.10;;;5.90;99.90;;;5.21;100.00;95894.72;4973417;28;20043;-37
2024/01/04 02:52:45;;;;;;;0.10;0.10;;;5.90;99.90;;;5.06;100.00;95883.97;4977729;28;20585;-37
2024/01/04 02:55:11;;;;;;;0.82;0.20;;;5.80;99.90;;;5.13;100.00;95895.00;4977475;28;20088;-37
2024/01/04 02:57:36;;;;;;;0.52;0.10;;;5.80;99.90;;;5.02;100.00;95878.91;4976141;28;20038;-37
2024/01/04 03:00:03;;;;;;;0.20;0.10;;;5.80;99.90;;;4.98;100.00;95892.06;4976743;28;20565;-37
2024/01/04 03:02:28;;;;;;;0.85;0.17;;;5.70;99.90;;;4.98;100.00;95891.22;4978368;28;20400;-37
2024/01/04 03:04:54;;;;;;;0.10;0.10;;;5.60;99.90;;;4.91;100.00;95881.94;4974775;28;20033;-35
2024/01/04 03:07:20;;;;;;;0.10;0.10;;;5.60;99.90;;;4.92;100.00;95892.31;4976274;28;20026;-36
2024/01/04 03:09:48;;;;;;;0.88;0.20;;;5.60;99.90;;;4.99;100.00;95892.94;4974873;28;20038;-36
2024/01/04 03:12:14;;;;;;;0.32;0.15;;;5.70;99.90;;;5.02;100.00;95900.66;4976463;28;20052;-36
2024/01/04 03:14:40;;;;;;;1.15;0.10;;;5.70;99.90;;;5.08;100.00;95899.53;4978081;28;20042;-35
2024/01/04 03:17:05;;;;;;;0.63;0.15;;;5.70;99.90;;;5.09;100.00;95896.03;4977065;28;20042;-36
2024/01/04 03:19:31;;;;;;;1.25;0.28;;;5.70;99.90;;;4.96;100.00;95877.38;4975029;28;20037;-35
2024/01/04 03:21:57;;;;;;;3.13;0.20;;;5.80;99.90;;;5.15;100.00;95896.66;4977439;28;20121;-36
2024/01/04 03:24:22;;;;;;;0.10;0.10;;;5.80;99.90;;;5.22;100.00;95907.69;4976217;28;20030;-35
2024/01/04 03:26:48;;;;;;;0.25;0.20;;;5.80;99.90;;;5.01;100.00;95878.06;4977535;28;20042;-35
2024/01/04 03:29:14;;;;;;;0.08;0.08;;;5.80;99.90;;;5.12;100.00;95896.78;4974615;28;20354;-36
2024/01/04 03:31:39;;;;;;;1.67;0.20;;;5.90;99.90;;;5.20;100.00;95900.84;4974307;28;20042;-36
2024/01/04 03:34:15;;;;;;;1.38;0.17;;;5.90;99.90;;;5.08;100.00;95894.31;4974497;28;20037;-36
2024/01/04 03:36:40;;;;;;;0.32;0.20;;;5.90;99.90;;;5.22;100.00;95909.47;4982906;28;20034;-35
2024/01/04 03:39:06;;;;;;;0.85;0.10;;;5.90;99.90;;;5.19;100.00;95905.22;4974124;28;20034;-35
2024/01/04 03:41:32;;;;;;;0.75;0.10;;;5.90;99.90;;;5.22;100.00;95899.84;4973345;28;20381;-35
2024/01/04 03:43:58;;;;;;;1.77;0.20;;;5.90;99.90;;;5.16;100.00;95889.66;4976563;28;20261;-35
2024/01/04 03:46:23;;;;;;;1.55;0.25;;;5.90;99.90;;;5.24;100.00;95902.41;4975194;28;20030;-36
2024/01/04 03:48:50;;;;;;;1.27;0.20;;;6.00;99.90;;;5.29;100.00;95916.16;4972031;28;20023;-36
2024/01/04 03:51:16;;;;;;;0.68;0.30;;;6.00;99.90;;;5.31;100.00;95916.94;4976120;28;20034;-36
2024/01/04 03:53:42;;;;;;;0.32;0.22;;;6.00;99.90;;;5.35;100.00;95913.31;4975203;28;20038;-36
2024/01/04 03:56:08;;;;;;;1.25;0.20;;;6.00;99.90;;;5.34;100.00;95920.28;4974287;28;20042;-36
2024/01/04 03:58:34;;;;;;;2.72;0.35;;;6.10;99.90;;;5.18;100.00;95873.91;4973106;28;20057;-37
2024/01/04 04:01:02;;;;;;;1.55;0.38;;;6.10;99.90;;;5.39;100.00;95909.66;4973329;28;20030;-36
2024/01/04 04:03:28;;;;;;;3.60;0.22;;;6.10;99.90;;;5.45;100.00;95926.84;4974071;28;20022;-37
2024/01/04 04:05:53;;;;;;;2.92;0.50;;;6.20;99.90;;;5.48;100.00;95924.97;4970372;28;20034;-36
2024/01/04 04:08:19;;;;;;;0.28;0.20;;;6.20;99.90;;;5.41;100.00;95913.06;4973193;28;20447;-36
2024/01/04 04:10:45;;;;;;;0.32;0.30;;;6.20;99.90;;;5.58;100.00;95935.91;4969804;28;20105;-36
2024/01/04 04:13:10;;;;;;;1.95;0.57;;;6.20;99.90;;;5.66;100.00;95936.44;4974919;28;20493;-37
2024/01/04 04:15:36;;;;;;;4.95;0.60;;;6.30;99.90;;;5.77;100.00;95948.25;4972777;28;20045;-37
2024/01/04 04:18:02;;;;;;;3.05;0.43;;;6.40;99.90;;;5.88;100.00;95951.25;4973860;28;20069;-37
2024/01/04 04:20:28;;;;;;;3.53;0.70;;;6.50;99.90;;;5.92;100.00;95958.91;4970877;28;20225;-37
2024/01/04 04:22:55;;;;;;;1.05;0.35;;;6.50;99.90;;;5.98;100.00;95957.84;4973704;28;21010;-36
2024/01/04 04:25:20;;;;;;;1.27;0.50;;;6.60;99.90;;;6.01;100.00;95967.31;4972056;28;20037;-36
2024/01/04 04:27:46;;;;;;;2.92;0.50;;;6.70;99.90;;;6.13;100.00;95958.97;4973700;28;20039;-36
2024/01/04 04:30:12;;;;;;;3.35;0.70;;;6.80;99.90;;;6.17;100.00;95957.91;4974108;28;20495;-36
2024/01/04 04:32:38;;;;;;;4.65;0.60;;;6.80;99.90;;;6.19;100.00;95965.69;4974310;28;20058;-36
2024/01/04 04:35:04;;;;;;;3.00;0.45;;;6.80;99.90;;;6.14;100.00;95965.03;4973981;28;20395;-36
2024/01/04 04:37:29;;;;;;;2.53;0.57;;;6.90;99.90;;;6.22;100.00;95961.19;4974500;28;20080;-36
2024/01/04 04:39:55;;;;;;;3.40;0.30;;;6.90;99.90;;;6.27;100.00;95964.44;4974277;28;20297;-36
2024/01/04 04:42:21;;;;;;;3.40;0.52;;;6.90;99.90;;;6.30;100.00;95961.72;4972829;28;20066;-36
2024/01/04 04:44:46;;;;;;;1.90;0.40;;;7.00;99.90;;;6.34;100.00;95967.66;4971278;28;20038;-36
2024/01/04 04:47:12;;;;;;;2.20;0.40;;;7.00;99.90;;;6.36;100.00;95972.84;4973066;28;20439;-36
2024/01/04 04:49:38;;;;;;;1.70;0.47;;;7.00;99.90;;;6.34;100.00;95972.06;4970486;28;20062;-36
2024/01/04 04:52:04;;;;;;;2.80;0.70;;;7.00;99.90;;;6.33;100.00;95955.47;4972881;28;20089;-36
2024/01/04 04:54:30;;;;;;;2.90;0.60;;;7.00;99.90;;;6.27;100.00;95956.59;4973876;28;20058;-36
2024/01/04 04:56:56;;;;;;;3.85;0.47;;;7.00;99.90;;;6.39;100.00;95977.94;4973077;28;20671;-36
2024/01/04 04:59:22;;;;;;;3.42;0.75;;;7.00;99.90;;;6.36;100.00;95993.78;4971130;28;20483;-36
2024/01/04 05:01:48;;;;;;;3.17;0.50;;;7.00;99.90;;;6.35;100.00;95984.22;4971312;28;20510;-36
2024/01/04 05:04:13;;;;;;;1.58;0.57;;;6.90;99.90;;;6.27;100.00;95993.25;4972329;28;20386;-37
2024/01/04 05:06:39;;;;;;;2.17;0.77;;;6.90;99.90;;;6.15;100.00;95983.28;4972247;28;20389;-37
2024/01/04 05:09:07;;;;;;;1.58;0.40;;;6.90;99.90;;;6.19;100.00;95999.72;4972160;28;20540;-36
2024/01/04 05:11:33;;;;;;;1.30;0.38;;;6.80;99.90;;;6.20;100.00;96004.91;4969085;28;20038;-37
2024/01/04 05:13:58;;;;;;;3.65;0.30;;;6.80;99.90;;;6.19;100.00;95999.72;4973633;28;20041;-37
2024/01/04 05:16:24;;;;;;;3.72;0.55;;;6.80;99.90;;;6.15;100.00;96009.47;4974706;28;20133;-37
2024/01/04 05:18:50;;;;;;;0.98;0.40;;;6.80;99.90;;;6.19;100.00;96005.84;4974690;28;20030;-36
2024/01/04 05:21:15;;;;;;;3.78;0.50;;;6.80;99.90;;;6.21;100.00;96018.81;4973813;28;20049;-37
2024/01/04 05:23:41;;;;;;;2.67;0.38;;;6.80;99.90;;;6.13;100.00;96019.16;4975191;28;20030;-37
2024/01/04 05:26:07;;;;;;;2.17;0.60;;;6.80;99.90;;;6.11;100.00;96024.44;4972047;28;20438;-37
2024/01/04 05:28:32;;;;;;;3.03;0.43;;;6.70;99.90;;;6.10;100.00;96024.50;4972277;28;20037;-36
2024/01/04 05:30:58;;;;;;;0.98;0.40;;;6.70;99.90;;;6.05;100.00;96024.72;4972929;28;20050;-37
2024/01/04 05:33:24;;;;;;;4.32;0.55;;;6.70;99.90;;;6.00;100.00;96023.22;4972721;28;20034;-36
2024/01/04 05:35:51;;;;;;;2.08;0.47;;;6.70;99.90;;;6.01;100.00;96032.75;4971397;28;20509;-36
2024/01/04 05:38:16;;;;;;;1.63;0.40;;;6.70;99.90;;;6.03;100.00;96037.03;4972485;28;21000;-36
2024/01/04 05:40:42;;;;;;;2.45;0.57;;;6.60;99.90;;;6.02;100.00;96044.94;4971651;28;20049;-36
2024/01/04 05:43:08;;;;;;;2.03;0.52;;;6.60;99.90;;;6.03;100.00;96057.97;4974312;28;20053;-36
2024/01/04 05:45:33;;;;;;;4.03;0.68;;;6.60;99.90;;;6.00;100.00;96055.44;4968445;28;20026;-37
2024/01/04 05:47:59;;;;;;;3.22;0.50;;;6.60;99.90;;;6.07;100.00;96046.44;4971923;28;20026;-36
2024/01/04 05:50:25;;;;;;;3.33;0.35;;;6.60;99.90;;;5.90;100.00;96041.88;4968750;28;20031;-36
2024/01/04 05:52:50;;;;;;;1.10;0.40;;;6.60;99.90;;;5.99;100.00;96069.44;4972380;28;20062;-36
2024/01/04 05:55:16;;;;;;;4.65;0.50;;;6.60;99.90;;;6.03;100.00;96068.41;4975364;28;20033;-36
2024/01/04 05:57:43;;;;;;;3.15;0.47;;;6.60;99.90;;;5.97;100.00;96079.13;4973256;28;20182;-36
2024/01/04 06:00:10;;;;;;;4.60;0.40;;;6.60;99.90;;;5.99;100.00;96089.53;4974390;28;20554;-36
2024/01/04 06:02:35;;;;;;;1.65;0.60;;;6.60;99.90;;;5.98;100.00;96085.22;4972644;28;20088;-36
2024/01/04 06:05:01;;;;;;;2.78;0.40;;;6.60;99.90;;;5.99;100.00;96094.75;4973017;28;20030;-35
2024/01/04 06:07:27;;;;;;;7.32;0.88;;;6.60;99.90;;;5.94;100.00;96084.47;4971823;28;20027;-36
2024/01/04 06:09:52;;;;;;;1.30;0.20;;;6.60;99.90;;;6.04;100.00;96090.19;4969306;28;20106;-36
2024/01/04 06:12:18;;;;;;;0.75;0.35;;;6.70;99.90;;;6.02;100.00;96092.03;4970790;28;20104;-36
2024/01/04 06:14:44;;;;;;;3.70;0.43;;;6.60;99.90;;;5.99;100.00;96090.38;4971845;28;20210;-36
2024/01/04 06:17:09;;;;;;;1.92;0.55;;;6.70;99.90;;;6.03;100.00;96104.19;4971262;28;20093;-36
2024/01/04 06:19:35;;;;;;;3.03;0.90;;;6.60;99.90;;;6.06;100.00;96106.69;4973576;28;20498;-36
2024/01/04 06:22:01;;;;;;;2.35;0.57;;;6.70;99.90;;;6.06;100.00;96099.69;4973560;28;20031;-36
2024/01/04 06:24:27;;;;;;;1.55;0.52;;;6.70;99.90;;;6.16;100.00;96108.03;4973498;28;20034;-36
2024/01/04 06:26:52;;;;;;;3.53;1.15;;;6.80;99.90;;;6.17;100.00;96107.09;4974376;28;20349;-36
2024/01/04 06:29:19;;;;;;;2.78;0.40;;;6.80;99.90;;;6.21;100.00;96123.53;4975231;28;20087;-36
2024/01/04 06:31:44;;;;;;;3.47;1.02;;;6.80;99.90;;;6.21;100.00;96126.16;4971497;28;20512;-37
2024/01/04 06:34:10;;;;;;;2.00;0.40;;;6.90;99.90;;;6.10;100.00;96110.88;4972895;28;20729;-37
2024/01/04 06:36:36;;;;;;;1.58;0.55;;;6.90;99.90;;;6.20;100.00;96119.25;4969565;28;20034;-37
2024/01/04 06:39:02;;;;;;;2.92;0.50;;;6.90;99.90;;;6.23;100.00;96126.97;4970071;28;20143;-37
2024/01/04 06:41:29;;;;;;;4.03;0.65;;;6.90;99.90;;;6.18;100.00;96128.94;4968793;28;20039;-37
2024/01/04 06:43:56;;;;;;;2.22;0.38;;;6.80;99.90;;;6.19;100.00;96131.47;4973895;28;20037;-37
2024/01/04 06:46:22;;;;;;;7.03;0.90;;;6.80;99.90;;;6.14;100.00;96141.28;4972318;28;20415;-37
2024/01/04 06:48:47;;;;;;;3.20;0.47;;;6.80;99.90;;;6.15;100.00;96148.19;4974504;28;20550;-37
2024/01/04 06:51:13;;;;;;;3.25;0.70;;;6.80;99.90;;;6.08;100.00;96138.88;4963147;28;20042;-37
2024/01/04 06:53:39;;;;;;;2.88;0.40;;;6.80;99.90;;;6.17;100.00;96151.59;4974750;28;20137;-37
2024/01/04 06:56:05;;;;;;;1.17;0.30;;;6.80;99.90;;;6.16;100.00;96160.38;4971804;28;20039;-37
2024/01/04 06:58:31;;;;;;;3.60;0.45;;;6.80;99.90;;;6.20;100.00;96164.59;4975619;28;20092;-37
2024/01/04 07:00:57;;;;;;;3.10;0.60;;;6.90;99.90;;;6.29;100.00;96166.84;4975032;28;20038;-37
2024/01/04 07:03:22;;;;;;;2.58;0.63;;;6.90;99.90;;;6.24;100.00;96153.06;4973602;28;20483;-37
2024/01/04 07:05:49;;;;;;;1.65;0.30;;;6.90;99.90;;;6.37;100.00;96170.91;4974631;28;20041;-37
2024/01/04 07:08:14;;;;;;;5.40;0.60;;;7.00;99.90;;;6.36;100.00;96167.44;4973243;28;20030;-37
2024/01/04 07:10:40;;;;;;;3.10;0.70;;;7.00;99.90;;;6.31;100.00;96177.25;4976172;28;20045;-37
2024/01/04 07:13:07;;;;;;;2.58;0.85;;;7.00;99.90;;;6.41;100.00;96193.47;4975357;28;20038;-37
2024/01/04 07:15:33;;;;;;;2.28;0.65;;;7.00;99.90;;;6.36;100.00;96195.41;4976907;28;20446;-37
2024/01/04 07:17:59;;;;;;;1.20;0.40;;;7.00;99.90;;;6.31;100.00;96201.66;4975314;28;20856;-37
2024/01/04 07:20:24;;;;;;;3.60;0.60;;;7.00;99.90;;;6.30;100.00;96192.13;4977333;28;20037;-37
2024/01/04 07:22:52;;;;;;;2.33;0.40;;;7.00;99.90;;;6.29;100.00;96208.72;4973398;28;20151;-37
2024/01/04 07:25:19;;;;;;;1.95;0.45;;;7.00;99.90;;;6.28;100.00;96214.03;4973821;28;20110;-37
2024/01/04 07:27:45;;;;;;;2.38;0.28;;;6.90;99.90;;;6.27;100.00;96212.31;4974357;28;20392;-37
2024/01/04 07:30:11;;;;;;;4.80;0.73;;;6.90;99.90;;;6.24;100.00;96218.53;4974225;28;20049;-37
2024/01/04 07:32:37;;;;;;;3.92;0.60;;;6.90;99.90;;;6.19;100.00;96220.50;4975782;28;20082;-36
2024/01/04 07:35:05;;;;;;;0.77;0.30;;;6.90;99.90;;;6.21;100.00;96223.03;4975707;28;20035;-36
2024/01/04 07:37:30;;;;;;;1.13;0.40;;;6.90;99.90;;;6.14;100.00;96225.03;4975627;28;20041;-37
2024/01/04 07:39:56;;;;;;;3.38;0.47;;;6.80;99.90;;;6.11;100.00;96240.84;4974961;28;20043;-37
2024/01/04 07:42:22;;;;;;;2.00;0.50;;;6.80;99.90;;;6.10;100.00;96239.13;4972617;28;20361;-36
2024/01/04 07:44:48;;;;;;;1.75;0.45;;;6.80;99.90;;;6.06;100.00;96251.47;4972417;28;20509;-36
2024/01/04 07:47:14;;;;;;;2.97;0.30;;;6.80;99.90;;;5.99;100.00;96251.78;4974768;28;20037;-36
2024/01/04 07:49:40;;;;;;;2.85;0.47;;;6.70;99.90;;;5.92;100.00;96245.88;4974600;28;20380;-36
2024/01/04 07:52:07;;;;;;;1.63;0.43;;;6.70;99.90;;;5.84;100.00;96242.72;4978029;28;20089;-37
2024/01/04 07:54:33;;;;;;;2.33;0.47;;;6.60;99.90;;;5.82;100.00;96245.38;4977954;28;20034;-36
2024/01/04 07:57:00;;;;;;;3.10;0.70;;;6.60;99.90;;;5.82;100.00;96245.38;4975985;28;20216;-37
2024/01/04 07:59:26;;;;;;;2.38;0.52;;;6.50;99.90;;;5.76;100.00;96243.00;4974931;28;20049;-36
2024/01/04 08:01:52;;;;;;;1.42;0.50;;;6.50;99.90;;;5.76;100.00;96256.06;4973505;28;20168;-36
2024/01/04 08:04:18;;;;;;;2.60;0.70;;;6.50;99.90;;;5.76;100.00;96247.34;4974259;28;20034;-36
2024/01/04 08:06:44;;;;;;;1.25;0.40;;;6.40;99.90;;;5.74;100.00;96250.91;4975221;28;20018;-36
2024/01/04 08:09:11;;;;;;;2.50;0.50;;;6.50;99.90;;;5.50;100.00;96217.78;4976558;28;20611;-36
2024/01/04 08:11:38;;;;;;;1.13;0.40;;;6.40;99.90;;;5.69;100.00;96259.81;4975492;28;20030;-36
2024/01/04 08:14:04;;;;;;;3.30;0.45;;;6.40;99.90;;;5.55;100.00;96240.22;4972404;28;20034;-35
2024/01/04 08:16:30;;;;;;;5.60;0.60;;;6.40;99.90;;;5.61;100.00;96248.75;4978360;28;20046;-36
2024/01/04 08:18:55;;;;;;;2.45;0.80;;;6.40;99.90;;;5.62;100.00;96258.34;4970317;28;20433;-36
2024/01/04 08:21:21;;;;;;;3.95;0.63;;;6.40;99.90;;;5.57;100.00;96248.03;4968513;28;20038;-36
2024/01/04 08:23:50;;;;;;;1.27;0.40;;;6.30;99.90;;;5.58;100.00;96268.06;4973960;28;20030;-37
2024/01/04 08:26:16;;;;;;;2.97;0.50;;;6.30;99.90;;;5.55;100.00;96258.53;4972368;28;20026;-37
2024/01/04 08:28:42;;;;;;;2.42;0.73;;;6.20;99.90;;;5.51;100.00;96256.94;4968436;28;20237;-37
2024/01/04 08:31:07;;;;;;;5.75;0.82;;;6.20;99.90;;;5.49;100.00;96261.38;4974485;28;20038;-37
2024/01/04 08:33:33;;;;;;;2.85;0.55;;;6.20;99.90;;;5.37;100.00;96256.56;4965779;28;20049;-37
2024/01/04 08:35:59;;;;;;;3.65;0.68;;;6.20;99.90;;;5.49;100.00;96269.22;4972836;28;20066;-37
2024/01/04 08:38:25;;;;;;;3.17;0.60;;;6.10;99.90;;;5.48;100.00;96271.88;4971583;28;20113;-38
2024/01/04 08:40:50;;;;;;;3.25;0.60;;;6.20;99.90;;;5.45;100.00;96275.44;4972645;28;20049;-37
2024/01/04 08:43:16;;;;;;;3.63;0.73;;;6.10;99.90;;;5.44;100.00;96272.91;4970746;28;20096;-37
2024/01/04 08:45:42;;;;;;;5.82;0.80;;;6.10;99.90;;;5.51;100.00;96277.03;4970456;28;20046;-37
2024/01/04 08:48:07;;;;;;;4.25;0.75;;;6.20;99.90;;;5.51;100.00;96290.94;4973385;28;20344;-37
2024/01/04 08:50:33;;;;;;;5.25;0.80;;;6.20;99.90;;;5.57;100.00;96300.31;4974463;28;20126;-37
2024/01/04 08:52:59;;;;;;;2.10;0.63;;;6.20;99.90;;;5.73;100.00;96291.03;4973696;28;20526;-37
2024/01/04 08:55:24;;;;;;;5.95;0.80;;;6.40;99.90;;;5.93;100.00;96297.31;4970128;28;20399;-37
2024/01/04 08:57:50;;;;;;;2.50;0.88;;;6.60;99.90;;;6.15;100.00;96307.88;4971168;28;20567;-37
2024/01/04 09:00:16;;;;;;;3.65;0.70;;;6.80;99.90;;;6.31;100.00;96319.50;4968692;28;20042;-37
2024/01/04 09:02:43;;;;;;;1.95;0.65;;;7.00;99.90;;;6.46;100.00;96325.94;4971586;28;20130;-37
2024/01/04 09:05:09;;;;;;;6.05;0.60;;;7.10;99.90;;;6.55;100.00;96322.13;4968907;28;20027;-37
2024/01/04 09:07:35;;;;;;;2.80;0.80;;;7.20;99.90;;;6.74;100.00;96331.88;4966038;28;20030;-37
2024/01/04 09:10:01;;;;;;;3.35;0.55;;;7.40;99.90;;;6.80;100.00;96329.88;4972384;28;20407;-37
2024/01/04 09:12:29;;;;;;;4.22;1.08;;;7.50;99.90;;;6.86;100.00;96334.03;4969040;28;20034;-38
2024/01/04 09:14:55;;;;;;;3.65;1.00;;;7.50;99.90;;;6.91;100.00;96337.31;4964535;28;20683;-38
2024/01/04 09:17:21;;;;;;;3.00;0.65;;;7.60;99.90;;;6.94;100.00;96333.72;4967103;28;20076;-37
2024/01/04 09:19:47;;;;;;;7.30;1.00;;;7.60;99.90;;;6.77;100.00;96323.91;4969810;28;20712;-37
2024/01/04 09:22:13;;;;;;;4.13;0.70;;;7.50;99.90;;;6.81;100.00;96342.06;4967513;28;20483;-37
2024/01/04 09:24:38;;;;;;;6.15;0.85;;;7.50;99.90;;;6.72;100.00;96328.47;4964434;28;20040;-37
2024/01/04 09:27:04;;;;;;;3.75;0.95;;;7.50;99.90;;;6.75;100.00;96350.16;4974064;28;20054;-36
2024/01/04 09:29:30;;;;;;;2.22;0.70;;;7.40;99.90;;;6.67;100.00;96337.34;4969252;28;20078;-37
2024/01/04 09:31:56;;;;;;;2.38;0.70;;;7.40;99.90;;;6.63;100.00;96346.25;4972875;28;20053;-36
2024/01/04 09:34:24;;;;;;;4.00;0.68;;;7.30;99.90;;;6.47;100.00;96332.03;4966699;28;20038;-37
2024/01/04 09:36:50;;;;;;;2.78;0.90;;;7.20;99.90;;;6.57;100.00;96356.97;4964224;28;20029;-37
2024/01/04 09:39:17;;;;;;;6.40;0.90;;;7.20;99.90;;;6.63;100.00;96345.41;4968787;28;20047;-37
2024/01/04 09:41:47;;;;;;;5.22;1.30;;;7.30;99.90;;;6.70;100.00;96341.63;4971601;28;20042;-37
2024/01/04 09:44:14;;;;;;;6.97;0.80;;;7.40;99.90;;;6.90;100.00;96364.44;4970007;28;20037;-37
2024/01/04 09:46:41;;;;;;;5.30;1.00;;;7.60;99.90;;;7.09;100.00;96364.59;4972929;28;20034;-37
2024/01/04 09:49:09;;;;;;;4.40;0.63;;;7.70;99.90;;;7.12;100.00;96368.84;4974604;28;20124;-37
2024/01/04 09:51:38;;;;;;;4.43;1.23;;;7.80;99.90;;;7.12;100.00;96364.44;4949102;28;20457;-37
2024/01/04 09:54:08;;;;;;;3.20;0.60;;;7.90;99.90;;;7.22;100.00;96370.19;4973678;28;20173;-37
2024/01/04 09:56:50;;;;;;;3.90;0.60;;;8.00;99.90;;;7.49;100.00;96383.09;4972115;28;20045;-36
2024/01/04 09:59:16;;;;;;;3.03;0.70;;;8.10;99.90;;;7.51;100.00;96386.50;4972966;28;20644;-36
2024/01/04 10:01:43;;;;;;;5.90;0.88;;;8.20;99.90;;;7.59;100.00;96395.78;4969834;28;20046;-36
2024/01/04 10:04:12;;;;;;;6.47;0.80;;;8.30;99.90;;;7.69;100.00;96400.66;4971530;28;20120;-36
2024/01/04 10:06:43;;;;;;;4.28;0.65;;;8.40;99.90;;;7.75;100.00;96401.25;4963842;28;20080;-37
2024/01/04 10:09:38;;;;;;;3.28;0.70;;;8.50;99.90;;;7.87;100.00;96404.28;4973269;28;20533;-37
2024/01/04 10:12:11;;;;;;;1.70;0.47;;;8.50;99.90;;;7.81;100.00;96387.00;4971448;28;20046;-36
2024/01/04 10:14:37;;;;;;;2.45;0.52;;;8.60;99.90;;;7.92;100.00;96390.03;4974108;28;20089;-36
2024/01/04 10:17:03;;;;;;;0.60;0.40;;;8.70;99.90;;;7.97;100.00;96405.59;4970223;28;20172;-36
2024/01/04 10:19:31;;;;;;;4.53;1.00;;;8.70;99.90;;;7.86;100.00;96397.31;4971092;28;20761;-37